Time;durP1;ratioP1;P1;durP2;ratioP2;P2;SDS_P1;SDS_P2;PMS_P1;PMS_P2;Temp;Humidity;BMP_temperature;BMP_pressure;BME280_temperature;BME280_humidity;BME280_pressure;Samples;Min_cycle;Max_cycle;Signal;HPM_P1;HPM_P2
2024/04/03 00:00:40;;;;;;;0.82;0.68;;;;;;;17.65;41.53;99661.38;5078658;28;20037;-63
2024/04/03 00:03:05;;;;;;;2.15;0.57;;;;;;;17.55;41.25;99651.09;5079481;28;20044;-64
2024/04/03 00:05:31;;;;;;;1.30;0.50;;;;;;;17.62;41.66;99655.63;5079153;28;20067;-63
2024/04/03 00:07:56;;;;;;;0.95;0.50;;;;;;;17.61;41.04;99660.16;5078506;28;20032;-63
2024/04/03 00:10:22;;;;;;;1.70;0.47;;;;;;;17.58;41.79;99659.75;5079176;28;20042;-64
2024/04/03 00:12:48;;;;;;;1.55;0.50;;;;;;;17.43;41.62;99665.34;5077052;28;20032;-64
2024/04/03 00:15:13;;;;;;;1.25;0.70;;;;;;;17.38;41.79;99665.13;5079523;28;20043;-64
2024/04/03 00:17:39;;;;;;;1.00;0.70;;;;;;;17.14;42.69;99670.09;5077852;28;20036;-63
2024/04/03 00:20:05;;;;;;;0.40;0.40;;;;;;;17.04;43.07;99667.00;5079540;28;20062;-64
2024/04/03 00:22:31;;;;;;;0.75;0.50;;;;;;;16.90;43.14;99665.34;5077974;28;20063;-64
2024/04/03 00:24:56;;;;;;;1.45;0.30;;;;;;;16.92;42.47;99660.63;5078403;28;20047;-63
2024/04/03 00:27:22;;;;;;;0.82;0.35;;;;;;;16.76;42.81;99639.63;5077780;28;20307;-64
2024/04/03 00:29:47;;;;;;;1.45;0.60;;;;;;;16.85;42.68;99676.66;5079801;28;20219;-64
2024/04/03 00:32:13;;;;;;;1.80;0.40;;;;;;;16.89;42.91;99674.41;5080680;28;20046;-64
2024/04/03 00:34:39;;;;;;;0.82;0.30;;;;;;;16.81;42.79;99664.72;5080184;28;20073;-64
2024/04/03 00:37:05;;;;;;;0.98;0.52;;;;;;;16.87;43.26;99676.47;5080402;28;20075;-64
2024/04/03 00:39:31;;;;;;;3.60;0.50;;;;;;;16.98;42.95;99673.19;5081254;28;20051;-63
2024/04/03 00:41:57;;;;;;;2.63;0.77;;;;;;;17.00;42.93;99671.13;5083380;28;20223;-64
2024/04/03 00:44:22;;;;;;;0.50;0.50;;;;;;;16.89;42.99;99667.22;5097520;28;20209;-63
2024/04/03 00:46:48;;;;;;;0.75;0.47;;;;;;;16.86;43.18;99680.16;5093013;28;20032;-63
2024/04/03 00:49:14;;;;;;;1.52;0.68;;;;;;;16.73;42.96;99672.94;5077042;28;20091;-63
2024/04/03 00:51:40;;;;;;;1.38;0.50;;;;;;;16.61;43.07;99678.00;5077864;28;20044;-64
2024/04/03 00:54:06;;;;;;;0.73;0.50;;;;;;;16.63;42.88;99677.81;5077408;28;20170;-63
2024/04/03 00:56:31;;;;;;;1.60;0.70;;;;;;;16.68;42.42;99688.78;5078441;28;20044;-63
2024/04/03 00:58:57;;;;;;;2.08;0.60;;;;;;;16.66;42.47;99692.69;5076742;28;20067;-64
2024/04/03 01:01:22;;;;;;;0.93;0.57;;;;;;;16.74;42.48;99706.69;5078137;28;20056;-63
2024/04/03 01:03:48;;;;;;;0.73;0.50;;;;;;;16.55;42.53;99699.38;5077012;28;20036;-64
2024/04/03 01:06:13;;;;;;;0.47;0.47;;;;;;;16.69;42.40;99705.66;5077516;28;20260;-63
2024/04/03 01:08:39;;;;;;;2.75;0.90;;;;;;;16.65;41.82;99707.91;5076498;28;20059;-63
2024/04/03 01:11:04;;;;;;;1.05;0.47;;;;;;;16.72;41.80;99716.75;5077285;28;20070;-64
2024/04/03 01:13:30;;;;;;;1.35;0.50;;;;;;;16.78;41.97;99715.13;5077432;28;20360;-63
2024/04/03 01:16:04;;;;;;;1.20;0.63;;;;;;;16.80;41.56;99713.91;5077207;28;20040;-63
2024/04/03 01:18:30;;;;;;;1.10;0.90;;;;;;;16.74;41.44;99716.56;5077701;28;20310;-63
2024/04/03 01:20:56;;;;;;;0.95;0.70;;;;;;;16.75;41.55;99724.38;5077556;28;20325;-63
2024/04/03 01:23:25;;;;;;;1.15;0.60;;;;;;;16.66;42.17;99719.41;5077470;28;20040;-64
2024/04/03 01:25:51;;;;;;;0.60;0.60;;;;;;;16.56;41.96;99725.91;5076713;28;20040;-64
2024/04/03 01:28:21;;;;;;;1.42;0.70;;;;;;;16.57;42.14;99727.56;5077755;28;20064;-63
2024/04/03 01:30:47;;;;;;;1.75;0.77;;;;;;;16.53;42.31;99731.66;5076912;28;20040;-64
2024/04/03 01:33:13;;;;;;;0.88;0.60;;;;;;;16.54;42.50;99741.31;5077932;28;20104;-64
2024/04/03 01:35:38;;;;;;;0.80;0.68;;;;;;;16.65;41.90;99741.78;5095798;28;20215;-64
2024/04/03 01:38:04;;;;;;;1.00;0.65;;;;;;;16.58;41.95;99731.06;5098517;28;20415;-64
2024/04/03 01:40:29;;;;;;;2.63;0.90;;;;;;;16.57;42.14;99742.78;5080053;28;20044;-63
2024/04/03 01:42:55;;;;;;;0.73;0.73;;;;;;;16.51;41.97;99741.72;5077217;28;20036;-63
2024/04/03 01:45:20;;;;;;;2.45;0.70;;;;;;;16.54;41.92;99744.00;5089227;28;20055;-63
2024/04/03 01:47:46;;;;;;;1.88;0.90;;;;;;;16.55;42.18;99731.47;5096479;28;20036;-63
2024/04/03 01:50:16;;;;;;;2.03;0.90;;;;;;;16.57;42.23;99740.09;5085217;28;20058;-64
2024/04/03 01:52:42;;;;;;;2.35;1.17;;;;;;;16.42;42.01;99750.94;5076604;28;20056;-64
2024/04/03 01:55:07;;;;;;;1.52;0.90;;;;;;;16.36;42.28;99743.72;5085447;28;20031;-64
2024/04/03 01:57:33;;;;;;;1.13;1.02;;;;;;;16.32;42.36;99747.81;5097113;28;20349;-64
2024/04/03 01:59:58;;;;;;;3.45;1.00;;;;;;;16.25;42.88;99737.09;5092076;28;20043;-63
2024/04/03 02:02:23;;;;;;;0.88;0.85;;;;;;;16.22;42.93;99744.69;5077560;28;20040;-63
2024/04/03 02:04:49;;;;;;;1.00;0.70;;;;;;;16.12;42.99;99742.38;5080820;28;20055;-64
2024/04/03 02:07:14;;;;;;;0.95;0.70;;;;;;;16.13;43.10;99743.22;5080131;28;20073;-64
2024/04/03 02:09:40;;;;;;;1.08;0.80;;;;;;;16.22;43.21;99739.34;5081761;28;20040;-64
2024/04/03 02:12:07;;;;;;;1.23;1.00;;;;;;;16.19;43.24;99739.75;5079783;28;20499;-64
2024/04/03 02:14:32;;;;;;;2.05;0.90;;;;;;;16.25;43.09;99741.63;5081090;28;20377;-64
2024/04/03 02:16:58;;;;;;;2.80;0.98;;;;;;;16.19;43.12;99745.09;5079062;28;20541;-65
2024/04/03 02:19:24;;;;;;;1.95;0.80;;;;;;;16.18;43.34;99741.59;5081319;28;20036;-64
2024/04/03 02:21:49;;;;;;;2.00;1.55;;;;;;;16.05;43.04;99741.53;5080725;28;20295;-64
2024/04/03 02:24:15;;;;;;;0.60;0.60;;;;;;;16.02;43.60;99739.25;5080671;28;20036;-65
2024/04/03 02:26:40;;;;;;;0.77;0.70;;;;;;;16.03;43.13;99738.22;5079877;28;20029;-64
2024/04/03 02:29:06;;;;;;;2.53;0.88;;;;;;;15.98;42.92;99743.34;5080689;28;20036;-64
2024/04/03 02:31:31;;;;;;;2.25;1.30;;;;;;;15.95;43.14;99751.75;5088274;28;20441;-64
2024/04/03 02:33:57;;;;;;;2.38;0.90;;;;;;;15.86;43.51;99739.56;5100526;28;20052;-64
2024/04/03 02:36:22;;;;;;;2.10;0.95;;;;;;;15.86;43.78;99743.06;5100651;28;20032;-64
2024/04/03 02:38:48;;;;;;;3.17;0.75;;;;;;;15.92;43.64;99739.59;5099813;28;20023;-65
2024/04/03 02:41:17;;;;;;;0.70;0.68;;;;;;;15.95;43.37;99743.72;5098313;28;20066;-63
2024/04/03 02:43:42;;;;;;;0.65;0.65;;;;;;;15.80;43.73;99751.84;5079664;28;20226;-64
2024/04/03 02:46:08;;;;;;;1.17;0.65;;;;;;;15.73;43.81;99750.16;5080781;28;20100;-64
2024/04/03 02:48:34;;;;;;;1.98;0.60;;;;;;;15.49;44.73;99760.19;5099198;28;20219;-64
2024/04/03 02:51:04;;;;;;;3.88;0.90;;;;;;;15.52;44.70;99759.81;5100932;28;20032;-64
2024/04/03 02:53:30;;;;;;;0.90;0.77;;;;;;;15.62;44.56;99762.19;5081279;28;20040;-64
2024/04/03 02:56:13;;;;;;;0.80;0.80;;;;;;;15.61;44.53;99760.56;5080822;28;20365;-63
2024/04/03 02:58:39;;;;;;;1.77;1.15;;;;;;;15.81;43.82;99763.34;5079853;28;20218;-64
2024/04/03 03:01:07;;;;;;;1.58;0.88;;;;;;;15.74;44.04;99768.66;5080427;28;20036;-64
2024/04/03 03:03:33;;;;;;;2.63;0.93;;;;;;;15.65;43.88;99764.47;5079106;28;20090;-64
2024/04/03 03:06:00;;;;;;;1.52;1.20;;;;;;;15.54;44.27;99767.63;5080001;28;20055;-64
2024/04/03 03:08:30;;;;;;;2.33;1.00;;;;;;;15.62;43.65;99778.22;5078566;28;20375;-64
2024/04/03 03:10:59;;;;;;;1.65;0.80;;;;;;;15.47;44.69;99783.56;5079738;28;20048;-64
2024/04/03 03:13:26;;;;;;;0.70;0.70;;;;;;;15.62;44.41;99783.56;5079601;28;20068;-64
2024/04/03 03:15:57;;;;;;;1.00;0.80;;;;;;;15.55;44.58;99790.63;5079733;28;20074;-63
2024/04/03 03:18:24;;;;;;;3.28;2.10;;;;;;;15.53;44.36;99790.81;5080551;28;20032;-64
2024/04/03 03:20:50;;;;;;;1.63;1.00;;;;;;;15.45;44.59;99787.47;5079489;28;20048;-63
2024/04/03 03:23:16;;;;;;;1.25;1.08;;;;;;;15.49;44.05;99794.88;5079490;28;20127;-64
2024/04/03 03:25:43;;;;;;;1.10;1.00;;;;;;;15.47;44.33;99796.09;5080084;28;20261;-64
2024/04/03 03:28:09;;;;;;;1.58;1.05;;;;;;;15.46;44.58;99789.94;5078514;28;20044;-63
2024/04/03 03:30:34;;;;;;;1.33;0.88;;;;;;;15.37;44.69;99796.41;5080597;28;20048;-63
2024/04/03 03:33:00;;;;;;;1.30;1.00;;;;;;;15.24;44.86;99807.78;5079148;28;20047;-63
2024/04/03 03:35:25;;;;;;;1.75;0.70;;;;;;;15.13;44.73;99805.63;5080678;28;20057;-63
2024/04/03 03:37:51;;;;;;;1.67;0.98;;;;;;;15.05;45.53;99807.59;5078350;28;20024;-62
2024/04/03 03:40:18;;;;;;;1.42;1.10;;;;;;;15.04;45.51;99811.28;5079682;28;20262;-63
2024/04/03 03:42:43;;;;;;;1.15;1.05;;;;;;;14.99;45.82;99811.84;5078307;28;20028;-62
2024/04/03 03:45:09;;;;;;;3.70;1.23;;;;;;;14.91;45.95;99810.13;5079709;28;20047;-62
2024/04/03 03:47:34;;;;;;;3.33;1.25;;;;;;;14.83;46.21;99810.25;5078848;28;20028;-63
2024/04/03 03:52:44;;;;;;;;;;;;;;;14.76;46.32;99821.84;5078635;28;20043;-63
2024/04/03 03:55:09;;;;;;;3.72;1.23;;;;;;;14.61;46.75;99821.84;5079709;28;19987;-63
2024/04/03 03:57:35;;;;;;;2.70;1.10;;;;;;;14.49;47.41;99828.66;5078876;28;20043;-63
2024/04/03 04:00:00;;;;;;;2.20;1.20;;;;;;;14.33;47.66;99819.81;5079336;28;20043;-63
2024/04/03 04:02:26;;;;;;;3.38;1.20;;;;;;;14.23;48.04;99847.72;5079242;28;20041;-64
2024/04/03 04:04:52;;;;;;;1.30;1.00;;;;;;;14.18;48.26;99842.94;5079437;28;20032;-64
2024/04/03 04:07:22;;;;;;;3.55;1.00;;;;;;;14.14;48.48;99852.31;5079833;28;20047;-63
2024/04/03 04:09:51;;;;;;;1.83;0.90;;;;;;;14.15;48.59;99843.31;5081608;28;20048;-65
2024/04/03 04:12:18;;;;;;;1.00;1.00;;;;;;;14.21;48.25;99850.56;5081462;28;20036;-62
2024/04/03 04:14:52;;;;;;;1.85;1.40;;;;;;;14.25;48.26;99851.84;5077664;28;20111;-63
2024/04/03 04:17:18;;;;;;;2.08;1.40;;;;;;;14.25;48.22;99849.19;5077207;28;20250;-64
2024/04/03 04:19:45;;;;;;;3.10;1.60;;;;;;;14.27;48.08;99852.50;5079399;28;20195;-63
2024/04/03 04:22:11;;;;;;;3.00;1.10;;;;;;;14.28;48.37;99869.31;5077355;28;20239;-63
2024/04/03 04:24:38;;;;;;;1.58;1.48;;;;;;;14.32;48.50;99870.59;5078558;28;20081;-63
2024/04/03 04:27:05;;;;;;;1.45;1.10;;;;;;;14.43;48.28;99878.16;5089144;28;20335;-65
2024/04/03 04:29:40;;;;;;;1.98;1.40;;;;;;;14.43;48.03;99875.50;5098441;28;20047;-64
2024/04/03 04:32:09;;;;;;;3.00;0.82;;;;;;;14.41;48.20;99874.81;5098122;28;20035;-63
2024/04/03 04:34:44;;;;;;;2.53;0.85;;;;;;;14.50;48.29;99887.06;5098276;28;20032;-64
2024/04/03 04:37:09;;;;;;;3.22;1.13;;;;;;;14.57;48.13;99896.03;5098203;28;20036;-64
2024/04/03 04:39:36;;;;;;;2.72;0.90;;;;;;;14.67;48.05;99904.56;5097275;28;20070;-63
2024/04/03 04:42:01;;;;;;;6.03;1.50;;;;;;;14.79;48.02;99904.91;5097569;28;20138;-64
2024/04/03 04:44:27;;;;;;;2.60;1.13;;;;;;;14.82;48.43;99898.38;5098097;28;20040;-63
2024/04/03 04:46:54;;;;;;;2.85;1.17;;;;;;;14.88;48.11;99897.66;5095320;28;20319;-64
2024/04/03 04:49:21;;;;;;;3.95;1.50;;;;;;;14.91;48.24;99905.28;5077855;28;20028;-63
2024/04/03 04:51:47;;;;;;;2.63;1.55;;;;;;;14.93;48.14;99906.75;5077375;28;20099;-64
2024/04/03 04:54:15;;;;;;;2.13;1.00;;;;;;;15.02;47.92;99915.47;5078192;28;20048;-64
2024/04/03 04:56:41;;;;;;;4.57;1.52;;;;;;;14.99;48.39;99905.16;5078838;28;20040;-64
2024/04/03 04:59:08;;;;;;;2.38;1.02;;;;;;;15.19;47.63;99916.91;5076646;28;20040;-64
2024/04/03 05:01:38;;;;;;;2.13;1.15;;;;;;;15.26;47.40;99915.13;5077858;28;20150;-63
2024/04/03 05:04:04;;;;;;;6.60;1.85;;;;;;;15.34;47.49;99919.53;5077002;28;20039;-63
2024/04/03 05:06:30;;;;;;;7.65;2.10;;;;;;;15.40;47.19;99921.44;5078021;28;20036;-64
2024/04/03 05:08:59;;;;;;;4.93;1.70;;;;;;;15.50;47.32;99923.81;5090803;28;20395;-64
2024/04/03 05:11:24;;;;;;;4.55;1.55;;;;;;;15.59;47.17;99931.53;5097747;28;20032;-64
2024/04/03 05:13:50;;;;;;;2.22;1.08;;;;;;;15.63;46.79;99927.50;5086663;28;20072;-64
2024/04/03 05:16:20;;;;;;;3.20;1.00;;;;;;;15.69;47.11;99944.59;5077190;28;20040;-64
2024/04/03 05:18:47;;;;;;;1.20;1.10;;;;;;;15.83;47.09;99945.56;5077493;28;20028;-64
2024/04/03 05:21:14;;;;;;;6.35;1.65;;;;;;;15.93;46.96;99938.03;5077387;28;20048;-65
2024/04/03 05:23:39;;;;;;;3.08;1.00;;;;;;;16.23;46.63;99955.56;5077731;28;20063;-64
2024/04/03 05:26:06;;;;;;;3.53;1.48;;;;;;;16.58;45.64;99961.78;5077598;28;20078;-64
2024/04/03 05:28:33;;;;;;;19.60;3.53;;;;;;;16.89;44.57;99955.22;5077601;28;20100;-64
2024/04/03 05:31:08;;;;;;;3.30;1.60;;;;;;;16.91;44.08;99954.00;5076675;28;20032;-64
2024/04/03 05:33:34;;;;;;;4.03;1.13;;;;;;;17.14;43.79;99961.72;5075847;28;20036;-64
2024/04/03 05:36:01;;;;;;;4.40;1.10;;;;;;;17.39;42.93;99958.53;5076550;28;20041;-64
2024/04/03 05:38:27;;;;;;;2.38;1.17;;;;;;;17.60;42.42;99961.06;5081130;28;20036;-64
2024/04/03 05:40:54;;;;;;;2.03;1.10;;;;;;;17.77;42.46;99954.38;5079955;28;20055;-64
2024/04/03 05:43:20;;;;;;;3.10;1.17;;;;;;;17.95;41.78;99953.78;5082146;28;20114;-64
2024/04/03 05:45:47;;;;;;;1.02;0.70;;;;;;;18.04;41.35;99946.34;5080647;28;20131;-65
2024/04/03 05:48:13;;;;;;;1.48;0.90;;;;;;;18.24;41.05;99957.91;5081723;28;20052;-64
2024/04/03 05:50:38;;;;;;;4.90;1.40;;;;;;;18.46;40.96;99959.34;5081025;28;20050;-64
2024/04/03 05:53:04;;;;;;;2.95;1.35;;;;;;;18.52;40.33;99953.13;5081458;28;20060;-65
2024/04/03 05:55:30;;;;;;;2.53;1.33;;;;;;;18.66;39.70;99959.34;5080859;28;20044;-64
2024/04/03 05:57:56;;;;;;;1.25;0.82;;;;;;;18.91;39.39;99964.06;5080989;28;20322;-64
2024/04/03 06:00:22;;;;;;;2.97;0.95;;;;;;;19.02;38.55;99966.91;5081047;28;20047;-65
2024/04/03 06:02:48;;;;;;;3.35;0.90;;;;;;;19.26;37.91;99970.75;5080736;28;20036;-64
2024/04/03 06:05:14;;;;;;;2.65;0.95;;;;;;;19.17;38.09;99971.19;5085910;28;20035;-64
2024/04/03 06:07:40;;;;;;;1.55;0.95;;;;;;;19.27;37.86;99972.38;5101200;28;20065;-64
2024/04/03 06:10:07;;;;;;;2.15;1.08;;;;;;;19.30;37.45;99963.91;5099294;28;20040;-64
2024/04/03 06:12:32;;;;;;;1.92;0.70;;;;;;;19.52;37.32;99972.50;5080107;28;20048;-64
2024/04/03 06:14:58;;;;;;;1.35;0.85;;;;;;;19.78;37.00;99974.25;5081329;28;20040;-64
2024/04/03 06:17:24;;;;;;;6.70;1.20;;;;;;;19.99;36.53;99970.41;5099356;28;20047;-64
2024/04/03 06:19:49;;;;;;;2.50;0.70;;;;;;;19.98;35.52;99977.63;5101604;28;20040;-64
2024/04/03 06:22:15;;;;;;;1.42;0.60;;;;;;;20.00;35.49;99969.34;5082769;28;20234;-64
2024/04/03 06:24:42;;;;;;;3.03;0.80;;;;;;;19.98;36.08;99991.06;5080844;28;20040;-64
2024/04/03 06:27:08;;;;;;;3.38;1.00;;;;;;;19.81;35.76;99997.19;5080124;28;20396;-65
2024/04/03 06:29:33;;;;;;;21.42;4.00;;;;;;;20.00;35.61;99996.22;5080650;28;20032;-65
2024/04/03 06:32:00;;;;;;;4.05;1.08;;;;;;;20.03;34.93;100003.88;5091051;28;20036;-64
2024/04/03 06:34:25;;;;;;;3.50;0.63;;;;;;;20.09;34.84;99992.25;5101112;28;20044;-64
2024/04/03 06:36:51;;;;;;;2.25;0.90;;;;;;;20.27;35.41;99989.63;5091531;28;20408;-64
2024/04/03 06:39:16;;;;;;;4.35;1.35;;;;;;;20.43;34.30;100000.91;5079792;28;20055;-64
2024/04/03 06:41:42;;;;;;;1.17;0.50;;;;;;;20.72;33.74;100000.22;5079879;28;20034;-64
2024/04/03 06:44:07;;;;;;;0.88;0.57;;;;;;;20.79;33.85;100000.97;5079888;28;20069;-64
2024/04/03 06:46:33;;;;;;;1.55;0.73;;;;;;;21.10;33.62;100005.44;5079935;28;20220;-64
2024/04/03 06:48:58;;;;;;;1.48;0.80;;;;;;;21.24;33.04;100003.44;5078602;28;20216;-64
2024/04/03 06:51:24;;;;;;;2.45;1.00;;;;;;;21.33;32.91;100008.31;5080453;28;20047;-65
2024/04/03 06:53:50;;;;;;;1.40;0.40;;;;;;;20.96;32.27;100001.25;5079461;28;20041;-65
2024/04/03 06:56:15;;;;;;;3.20;0.90;;;;;;;21.03;32.43;99999.31;5081141;28;20328;-65
2024/04/03 06:58:42;;;;;;;2.80;0.70;;;;;;;20.74;32.48;100006.19;5096545;28;20036;-65
2024/04/03 07:01:10;;;;;;;1.55;0.70;;;;;;;20.97;32.62;100003.72;5100931;28;20047;-64
2024/04/03 07:03:36;;;;;;;1.05;0.55;;;;;;;21.05;32.82;99999.91;5084560;28;20040;-65
2024/04/03 07:06:02;;;;;;;2.22;0.52;;;;;;;21.22;32.49;100008.22;5079436;28;20032;-64
2024/04/03 07:08:27;;;;;;;2.47;0.85;;;;;;;20.94;32.40;100004.16;5078709;28;20066;-64
2024/04/03 07:10:53;;;;;;;1.80;0.80;;;;;;;21.10;33.22;100018.91;5079836;28;20044;-64
2024/04/03 07:13:20;;;;;;;3.08;0.70;;;;;;;21.52;32.50;99998.34;5080066;28;20075;-64
2024/04/03 07:15:47;;;;;;;2.40;0.73;;;;;;;21.48;31.92;100007.91;5079821;28;20226;-65
2024/04/03 07:18:13;;;;;;;2.03;0.73;;;;;;;21.67;32.12;100008.69;5085830;28;20039;-65
2024/04/03 07:20:38;;;;;;;0.57;0.57;;;;;;;21.88;31.93;100002.03;5099237;28;20124;-64
2024/04/03 07:23:04;;;;;;;1.35;0.40;;;;;;;22.03;31.30;100015.09;5099587;28;20058;-64
2024/04/03 07:25:29;;;;;;;19.58;2.75;;;;;;;22.23;30.73;100018.31;5099425;28;20039;-64
2024/04/03 07:27:56;;;;;;;0.75;0.60;;;;;;;22.21;31.34;100006.94;5099887;28;20105;-64
2024/04/03 07:30:21;;;;;;;1.75;0.50;;;;;;;22.45;30.88;100007.81;5079478;28;20044;-65
2024/04/03 07:32:47;;;;;;;6.28;1.20;;;;;;;22.69;30.65;100004.06;5078509;28;20067;-64
2024/04/03 07:35:13;;;;;;;2.38;0.65;;;;;;;22.88;30.29;100008.31;5078481;28;20075;-64
2024/04/03 07:37:40;;;;;;;2.58;0.60;;;;;;;23.06;29.60;100001.97;5080560;28;20040;-64
2024/04/03 07:40:08;;;;;;;10.50;2.13;;;;;;;23.02;29.61;99997.28;5080754;28;20044;-64
2024/04/03 07:42:41;;;;;;;0.93;0.60;;;;;;;23.14;29.74;99998.09;5080892;28;20323;-64
2024/04/03 07:45:08;;;;;;;1.63;0.73;;;;;;;23.21;29.49;100002.28;5078261;28;20100;-65
2024/04/03 07:47:35;;;;;;;1.15;0.50;;;;;;;23.21;29.20;99996.06;5078353;28;20311;-64
2024/04/03 07:50:01;;;;;;;1.90;0.70;;;;;;;23.27;28.85;99997.00;5079345;28;20063;-65
2024/04/03 07:52:27;;;;;;;1.75;0.70;;;;;;;23.41;28.78;99996.50;5077904;28;20262;-64
2024/04/03 07:54:54;;;;;;;1.65;0.57;;;;;;;23.19;28.79;99999.00;5079273;28;20075;-65
2024/04/03 07:57:19;;;;;;;3.20;0.90;;;;;;;23.25;28.84;100000.75;5077623;28;20036;-64
2024/04/03 07:59:48;;;;;;;1.83;0.60;;;;;;;23.43;28.94;99996.25;5078554;28;20035;-65
2024/04/03 08:02:13;;;;;;;2.72;1.58;;;;;;;23.63;28.98;99998.56;5078205;28;20047;-64
2024/04/03 08:04:39;;;;;;;1.27;0.60;;;;;;;23.79;27.93;99992.38;5078917;28;20036;-65
2024/04/03 08:07:04;;;;;;;1.73;0.45;;;;;;;23.75;27.20;99992.03;5078374;28;20040;-65
2024/04/03 08:09:34;;;;;;;2.05;0.60;;;;;;;23.75;27.85;100000.16;5078726;28;20048;-64
2024/04/03 08:12:00;;;;;;;2.17;0.40;;;;;;;23.82;27.60;99994.59;5086853;28;20039;-62
2024/04/03 08:14:26;;;;;;;2.92;0.70;;;;;;;23.80;27.28;100008.34;5098477;28;20084;-62
2024/04/03 08:16:51;;;;;;;0.90;0.40;;;;;;;23.65;27.13;99997.25;5092373;28;20040;-65
2024/04/03 08:19:17;;;;;;;0.80;0.40;;;;;;;23.59;26.78;99992.00;5078305;28;20108;-64
2024/04/03 08:21:44;;;;;;;0.88;0.40;;;;;;;23.52;27.17;99984.00;5081316;28;20191;-64
2024/04/03 08:24:10;;;;;;;1.13;0.40;;;;;;;23.72;27.13;99989.81;5097835;28;20035;-64
2024/04/03 08:26:36;;;;;;;0.88;0.40;;;;;;;23.72;25.88;99989.81;5097949;28;20086;-64
2024/04/03 08:29:02;;;;;;;1.10;0.60;;;;;;;23.28;26.91;99980.56;5097292;28;20260;-65
2024/04/03 08:31:28;;;;;;;1.75;0.40;;;;;;;23.55;26.57;99978.13;5098828;28;20382;-65
2024/04/03 08:33:53;;;;;;;3.70;0.40;;;;;;;23.63;27.01;99974.22;5079929;28;20328;-64
2024/04/03 08:36:19;;;;;;;0.63;0.50;;;;;;;23.76;27.34;99971.22;5078076;28;20055;-65
2024/04/03 08:38:44;;;;;;;1.52;0.50;;;;;;;23.71;26.57;99961.16;5091736;28;20219;-65
2024/04/03 08:41:10;;;;;;;2.92;0.50;;;;;;;23.69;26.31;99965.97;5098653;28;20047;-65
2024/04/03 08:43:36;;;;;;;0.95;0.40;;;;;;;23.93;25.78;99965.84;5086090;28;20044;-65
2024/04/03 08:46:01;;;;;;;0.80;0.30;;;;;;;23.95;25.18;99961.03;5077792;28;20047;-64
2024/04/03 08:48:29;;;;;;;1.65;0.43;;;;;;;23.92;26.51;99958.81;5086569;28;20032;-65
2024/04/03 08:50:56;;;;;;;2.50;0.60;;;;;;;23.91;26.39;99960.69;5097484;28;20052;-64
2024/04/03 08:53:24;;;;;;;2.65;0.40;;;;;;;23.80;26.01;99967.81;5091717;28;20099;-65
2024/04/03 08:55:53;;;;;;;0.47;0.47;;;;;;;23.68;26.40;99971.63;5077611;28;20127;-64
2024/04/03 08:58:20;;;;;;;0.65;0.30;;;;;;;23.75;25.95;99965.00;5077145;28;20301;-64
2024/04/03 09:00:46;;;;;;;1.40;0.40;;;;;;;23.78;25.80;99953.69;5077979;28;20334;-65
2024/04/03 09:03:13;;;;;;;0.60;0.47;;;;;;;23.61;25.31;99952.03;5077479;28;20032;-65
2024/04/03 09:05:40;;;;;;;0.52;0.30;;;;;;;23.74;25.03;99949.84;5076534;28;20375;-63
2024/04/03 09:08:07;;;;;;;1.50;0.38;;;;;;;23.77;25.13;99945.84;5078395;28;20039;-65
2024/04/03 09:11:00;;;;;;;2.30;0.40;;;;;;;23.82;25.10;99951.34;5075708;28;20051;-64
2024/04/03 09:13:24;;;;;;;1.88;0.47;;;;;;;23.63;25.75;99939.91;5077435;28;20318;-64
2024/04/03 09:15:53;;;;;;;2.38;0.70;;;;;;;23.83;25.50;99939.44;5075999;28;20071;-65
2024/04/03 09:18:19;;;;;;;1.38;0.40;;;;;;;23.62;25.01;99929.34;5077509;28;20422;-62
2024/04/03 09:20:50;;;;;;;1.73;0.55;;;;;;;23.62;25.00;99935.56;5075386;28;20275;-62
2024/04/03 09:23:17;;;;;;;1.02;0.45;;;;;;;23.51;24.48;99928.31;5077072;28;20669;-64
2024/04/03 09:25:43;;;;;;;2.65;0.88;;;;;;;23.44;25.52;99919.53;5076338;28;20044;-65
2024/04/03 09:28:10;;;;;;;1.65;0.50;;;;;;;23.42;24.94;99927.03;5076863;28;20069;-64
2024/04/03 09:30:53;;;;;;;2.50;0.57;;;;;;;23.41;25.78;99920.81;5075977;28;20036;-64
2024/04/03 09:33:19;;;;;;;2.80;0.55;;;;;;;23.39;25.66;99912.13;5076942;28;20040;-64
2024/04/03 09:35:45;;;;;;;3.00;0.50;;;;;;;23.33;24.96;99912.28;5089015;28;20384;-64
2024/04/03 09:38:10;;;;;;;2.35;0.63;;;;;;;23.10;25.14;99910.50;5097890;28;20055;-65
2024/04/03 09:40:37;;;;;;;0.80;0.50;;;;;;;23.23;25.71;99900.22;5089242;28;20440;-64
2024/04/03 09:43:02;;;;;;;3.20;0.70;;;;;;;23.02;25.90;99898.19;5077244;28;20346;-65
2024/04/03 09:45:30;;;;;;;3.33;1.35;;;;;;;22.92;26.42;99897.97;5078028;28;20032;-65
2024/04/03 09:48:09;;;;;;;0.38;0.38;;;;;;;23.13;26.58;99881.13;5077860;28;20072;-65
2024/04/03 09:50:39;;;;;;;1.65;0.50;;;;;;;23.02;27.04;99883.84;5076856;28;20335;-64
2024/04/03 09:53:19;;;;;;;1.83;1.13;;;;;;;22.99;27.46;99882.47;5077506;28;20093;-65
2024/04/03 09:55:47;;;;;;;1.00;0.70;;;;;;;22.88;25.68;99883.28;5077523;28;20044;-65
2024/04/03 09:58:19;;;;;;;1.48;0.70;;;;;;;22.89;25.81;99877.69;5077341;28;20032;-64
2024/04/03 10:00:54;;;;;;;48.40;5.68;;;;;;;22.79;25.74;99876.59;5076681;28;20260;-64
2024/04/03 10:03:24;;;;;;;7.15;1.92;;;;;;;22.63;27.10;99881.66;5077653;28;20105;-64
2024/04/03 10:05:59;;;;;;;0.80;0.40;;;;;;;22.62;24.79;99873.81;5075680;28;20051;-64
2024/04/03 10:08:32;;;;;;;6.32;0.77;;;;;;;22.89;24.13;99887.66;5077075;28;20033;-64
2024/04/03 10:10:58;;;;;;;2.72;0.80;;;;;;;22.86;25.01;99891.63;5076390;28;20378;-65
2024/04/03 10:13:24;;;;;;;3.75;0.70;;;;;;;22.99;26.05;99884.34;5078712;28;20044;-62
2024/04/03 10:16:03;;;;;;;1.45;0.60;;;;;;;23.14;23.38;99873.84;5076132;28;20302;-63
2024/04/03 10:18:34;;;;;;;1.92;0.57;;;;;;;23.12;23.88;99848.94;5079569;28;20036;-64
2024/04/03 10:21:00;;;;;;;3.33;0.52;;;;;;;23.21;23.56;99861.00;5076265;28;20101;-64
2024/04/03 10:23:25;;;;;;;2.22;0.40;;;;;;;23.19;23.00;99863.94;5079254;28;20064;-65
2024/04/03 10:25:52;;;;;;;2.10;0.43;;;;;;;23.25;22.94;99862.16;5080096;28;20399;-65
2024/04/03 10:28:17;;;;;;;1.73;0.40;;;;;;;22.97;23.06;99857.56;5081942;28;20032;-65
2024/04/03 10:30:44;;;;;;;1.77;0.60;;;;;;;22.80;23.40;99852.09;5081679;28;20028;-64
2024/04/03 10:33:11;;;;;;;1.27;0.77;;;;;;;22.81;24.30;99848.31;5081527;28;20043;-65
2024/04/03 10:35:37;;;;;;;1.50;0.70;;;;;;;22.85;24.13;99848.66;5080012;28;20036;-65
2024/04/03 10:38:03;;;;;;;4.60;0.55;;;;;;;22.69;24.39;99852.91;5081083;28;20056;-64
2024/04/03 10:40:30;;;;;;;2.30;0.30;;;;;;;22.83;24.10;99848.91;5079983;28;20056;-65
2024/04/03 10:42:56;;;;;;;0.80;0.40;;;;;;;22.58;23.71;99834.84;5081570;28;20024;-64
2024/04/03 10:45:21;;;;;;;1.00;0.50;;;;;;;22.62;24.78;99839.53;5080945;28;20056;-64
2024/04/03 10:47:48;;;;;;;3.22;0.55;;;;;;;22.78;25.35;99824.47;5080808;28;20036;-65
2024/04/03 10:50:14;;;;;;;1.65;0.65;;;;;;;22.95;25.63;99835.41;5081406;28;20036;-65
2024/04/03 10:52:41;;;;;;;1.67;0.47;;;;;;;23.03;25.48;99829.59;5080747;28;20032;-65
2024/04/03 10:55:06;;;;;;;7.68;0.93;;;;;;;22.84;24.13;99828.94;5082475;28;20110;-64
2024/04/03 10:57:32;;;;;;;0.50;0.30;;;;;;;22.74;24.26;99830.59;5081760;28;20032;-64
2024/04/03 10:59:57;;;;;;;1.48;0.47;;;;;;;22.99;25.42;99824.94;5082884;28;20033;-65
2024/04/03 11:02:23;;;;;;;2.78;1.27;;;;;;;23.15;25.73;99827.69;5082336;28;20044;-65
2024/04/03 11:04:52;;;;;;;0.43;0.43;;;;;;;23.40;25.49;99821.09;5082438;28;20040;-65
2024/04/03 11:07:17;;;;;;;0.98;0.52;;;;;;;23.45;25.46;99813.88;5081981;28;20121;-64
2024/04/03 11:09:43;;;;;;;0.85;0.50;;;;;;;23.61;25.31;99798.78;5082070;28;20338;-65
2024/04/03 11:12:12;;;;;;;1.10;0.77;;;;;;;23.50;23.86;99810.44;5078731;28;20322;-62
2024/04/03 11:14:38;;;;;;;0.85;0.50;;;;;;;23.37;24.69;99794.56;5078381;28;20322;-61
2024/04/03 11:17:07;;;;;;;0.50;0.40;;;;;;;23.47;25.10;99802.84;5078200;28;20411;-62
2024/04/03 11:19:39;;;;;;;2.75;0.52;;;;;;;23.30;25.50;99802.00;5079660;28;20051;-66
2024/04/03 11:22:04;;;;;;;1.65;0.60;;;;;;;22.98;24.80;99797.09;5078964;28;20350;-65
2024/04/03 11:24:30;;;;;;;0.98;0.40;;;;;;;23.09;25.24;99796.22;5079227;28;20057;-65
2024/04/03 11:26:55;;;;;;;0.85;0.30;;;;;;;23.09;24.97;99793.53;5080033;28;20400;-64
2024/04/03 11:29:26;;;;;;;1.25;0.50;;;;;;;23.23;24.16;99780.53;5099782;28;20048;-65
2024/04/03 11:31:52;;;;;;;2.65;0.40;;;;;;;23.38;24.24;99783.50;5098890;28;20055;-62